sensor_id;sensor_type;location;lat;lon;timestamp;pressure;altitude;pressure_sealevel;temperature;humidity
80103;BME280;69410;47.648;19.030;2023-04-24T00:00:11;99744.34;;;10.00;65.79
80103;BME280;69410;47.648;19.030;2023-04-24T00:00:42;99750.69;;;10.07;65.91
80103;BME280;69410;47.648;19.030;2023-04-24T00:01:13;99744.34;;;10.10;66.37
80103;BME280;69410;47.648;19.030;2023-04-24T00:01:44;99750.28;;;10.12;65.90
80103;BME280;69410;47.648;19.030;2023-04-24T00:02:15;99752.66;;;10.15;65.70
80103;BME280;69410;47.648;19.030;2023-04-24T00:02:45;99745.44;;;10.17;65.64
80103;BME280;69410;47.648;19.030;2023-04-24T00:03:16;99742.69;;;10.18;66.67
80103;BME280;69410;47.648;19.030;2023-04-24T00:03:47;99745.72;;;10.14;65.77
80103;BME280;69410;47.648;19.030;2023-04-24T00:04:19;99743.66;;;10.17;65.97
80103;BME280;69410;47.648;19.030;2023-04-24T00:04:50;99739.06;;;10.19;66.37
80103;BME280;69410;47.648;19.030;2023-04-24T00:05:21;99743.34;;;10.20;67.20
80103;BME280;69410;47.648;19.030;2023-04-24T00:05:52;99745.69;;;10.23;66.56
80103;BME280;69410;47.648;19.030;2023-04-24T00:06:22;99741.13;;;10.25;66.76
80103;BME280;69410;47.648;19.030;2023-04-24T00:06:53;99741.94;;;10.26;66.58
80103;BME280;69410;47.648;19.030;2023-04-24T00:07:24;99738.19;;;10.28;66.23
80103;BME280;69410;47.648;19.030;2023-04-24T00:07:55;99740.69;;;10.30;66.85
80103;BME280;69410;47.648;19.030;2023-04-24T00:08:25;99741.22;;;10.33;65.22
80103;BME280;69410;47.648;19.030;2023-04-24T00:08:56;99737.47;;;10.36;65.60
80103;BME280;69410;47.648;19.030;2023-04-24T00:09:27;99743.72;;;10.35;65.67
80103;BME280;69410;47.648;19.030;2023-04-24T00:09:58;99728.72;;;10.35;65.01
80103;BME280;69410;47.648;19.030;2023-04-24T00:10:29;99737.16;;;10.39;65.84
80103;BME280;69410;47.648;19.030;2023-04-24T00:11:00;99732.72;;;10.40;65.43
80103;BME280;69410;47.648;19.030;2023-04-24T00:11:31;99731.75;;;10.41;66.05
80103;BME280;69410;47.648;19.030;2023-04-24T00:12:02;99735.88;;;10.43;65.92
80103;BME280;69410;47.648;19.030;2023-04-24T00:12:37;99728.69;;;10.45;65.20
80103;BME280;69410;47.648;19.030;2023-04-24T00:13:08;99733.13;;;10.45;65.09
80103;BME280;69410;47.648;19.030;2023-04-24T00:13:39;99728.56;;;10.47;64.75
80103;BME280;69410;47.648;19.030;2023-04-24T00:14:10;99730.06;;;10.49;64.85
80103;BME280;69410;47.648;19.030;2023-04-24T00:14:41;99728.56;;;10.47;64.75
80103;BME280;69410;47.648;19.030;2023-04-24T00:15:12;99732.00;;;10.47;65.43
80103;BME280;69410;47.648;19.030;2023-04-24T00:15:42;99737.13;;;10.49;65.00
80103;BME280;69410;47.648;19.030;2023-04-24T00:16:13;99725.94;;;10.47;65.28
80103;BME280;69410;47.648;19.030;2023-04-24T00:16:44;99726.19;;;10.44;64.36
80103;BME280;69410;47.648;19.030;2023-04-24T00:17:15;99730.50;;;10.45;64.81
80103;BME280;69410;47.648;19.030;2023-04-24T00:17:45;99728.69;;;10.45;65.41
80103;BME280;69410;47.648;19.030;2023-04-24T00:18:16;99725.94;;;10.47;65.44
80103;BME280;69410;47.648;19.030;2023-04-24T00:18:47;99723.97;;;10.49;65.57
80103;BME280;69410;47.648;19.030;2023-04-24T00:19:19;99732.00;;;10.47;65.79
80103;BME280;69410;47.648;19.030;2023-04-24T00:19:50;99726.91;;;10.46;65.24
80103;BME280;69410;47.648;19.030;2023-04-24T00:20:21;99732.16;;;10.46;65.05
80103;BME280;69410;47.648;19.030;2023-04-24T00:20:52;99736.19;;;10.40;65.74
80103;BME280;69410;47.648;19.030;2023-04-24T00:21:23;99726.50;;;10.41;65.45
80103;BME280;69410;47.648;19.030;2023-04-24T00:21:54;99734.53;;;10.39;65.20
80103;BME280;69410;47.648;19.030;2023-04-24T00:22:25;99738.59;;;10.33;65.27
80103;BME280;69410;47.648;19.030;2023-04-24T00:22:56;99735.97;;;10.33;65.86
80103;BME280;69410;47.648;19.030;2023-04-24T00:23:26;99729.91;;;10.23;65.56
80103;BME280;69410;47.648;19.030;2023-04-24T00:23:58;99736.69;;;10.26;65.34
80103;BME280;69410;47.648;19.030;2023-04-24T00:24:28;99739.84;;;10.29;65.26
80103;BME280;69410;47.648;19.030;2023-04-24T00:24:59;99729.03;;;10.32;65.63
80103;BME280;69410;47.648;19.030;2023-04-24T00:25:30;99738.88;;;10.30;64.90
80103;BME280;69410;47.648;19.030;2023-04-24T00:26:01;99732.34;;;10.34;65.79
80103;BME280;69410;47.648;19.030;2023-04-24T00:26:32;99733.03;;;10.36;64.69
80103;BME280;69410;47.648;19.030;2023-04-24T00:27:03;99737.47;;;10.36;65.16
80103;BME280;69410;47.648;19.030;2023-04-24T00:27:34;99740.09;;;10.36;64.74
80103;BME280;69410;47.648;19.030;2023-04-24T00:28:04;99738.28;;;10.36;65.58
80103;BME280;69410;47.648;19.030;2023-04-24T00:28:35;99739.00;;;10.39;65.36
80103;BME280;69410;47.648;19.030;2023-04-24T00:29:06;99734.25;;;10.42;65.41
80103;BME280;69410;47.648;19.030;2023-04-24T00:29:36;99732.47;;;10.43;64.66
80103;BME280;69410;47.648;19.030;2023-04-24T00:30:08;99737.13;;;10.49;64.89
80103;BME280;69410;47.648;19.030;2023-04-24T00:30:39;99740.44;;;10.51;64.82
80103;BME280;69410;47.648;19.030;2023-04-24T00:31:10;99739.97;;;10.55;64.17
80103;BME280;69410;47.648;19.030;2023-04-24T00:31:41;99736.38;;;10.56;65.08
80103;BME280;69410;47.648;19.030;2023-04-24T00:32:12;99730.16;;;10.57;65.18
80103;BME280;69410;47.648;19.030;2023-04-24T00:32:42;99731.13;;;10.56;64.36
80103;BME280;69410;47.648;19.030;2023-04-24T00:33:13;99732.69;;;10.49;65.07
80103;BME280;69410;47.648;19.030;2023-04-24T00:33:44;99737.00;;;10.50;65.14
80103;BME280;69410;47.648;19.030;2023-04-24T00:34:15;99738.63;;;10.51;64.34
80103;BME280;69410;47.648;19.030;2023-04-24T00:34:47;99734.19;;;10.52;64.61
80103;BME280;69410;47.648;19.030;2023-04-24T00:35:18;99730.59;;;10.53;65.13
80103;BME280;69410;47.648;19.030;2023-04-24T00:35:48;99729.00;;;10.60;64.08
80103;BME280;69410;47.648;19.030;2023-04-24T00:36:19;99734.69;;;10.65;64.51
80103;BME280;69410;47.648;19.030;2023-04-24T00:36:50;99733.72;;;10.66;64.04
80103;BME280;69410;47.648;19.030;2023-04-24T00:37:21;99725.94;;;10.64;64.12
80103;BME280;69410;47.648;19.030;2023-04-24T00:37:51;99729.94;;;10.68;64.71
80103;BME280;69410;47.648;19.030;2023-04-24T00:38:22;99722.56;;;10.72;64.38
80103;BME280;69410;47.648;19.030;2023-04-24T00:38:53;99733.78;;;10.74;63.78
80103;BME280;69410;47.648;19.030;2023-04-24T00:39:23;99732.66;;;10.76;64.32
80103;BME280;69410;47.648;19.030;2023-04-24T00:39:54;99726.25;;;10.79;65.15
80103;BME280;69410;47.648;19.030;2023-04-24T00:40:26;99726.94;;;10.81;65.55
80103;BME280;69410;47.648;19.030;2023-04-24T00:40:59;99729.44;;;10.82;64.74
80103;BME280;69410;47.648;19.030;2023-04-24T00:41:30;99727.47;;;10.84;64.89
80103;BME280;69410;47.648;19.030;2023-04-24T00:42:00;99722.06;;;10.86;64.87
80103;BME280;69410;47.648;19.030;2023-04-24T00:42:31;99729.97;;;10.86;65.76
80103;BME280;69410;47.648;19.030;2023-04-24T00:43:02;99725.66;;;10.85;65.83
80103;BME280;69410;47.648;19.030;2023-04-24T00:43:33;99726.81;;;10.82;68.43
80103;BME280;69410;47.648;19.030;2023-04-24T00:44:04;99725.97;;;10.82;66.00
80103;BME280;69410;47.648;19.030;2023-04-24T00:44:35;99728.44;;;10.83;66.64
80103;BME280;69410;47.648;19.030;2023-04-24T00:45:07;99730.81;;;10.87;67.38
80103;BME280;69410;47.648;19.030;2023-04-24T00:45:37;99729.13;;;10.86;66.51
80103;BME280;69410;47.648;19.030;2023-04-24T00:46:08;99728.44;;;10.83;67.69
80103;BME280;69410;47.648;19.030;2023-04-24T00:46:39;99730.94;;;10.85;67.44
80103;BME280;69410;47.648;19.030;2023-04-24T00:47:11;99724.69;;;10.86;67.40
80103;BME280;69410;47.648;19.030;2023-04-24T00:47:42;99721.06;;;10.87;66.92
80103;BME280;69410;47.648;19.030;2023-04-24T00:48:13;99729.50;;;10.73;67.92
80103;BME280;69410;47.648;19.030;2023-04-24T00:48:44;99720.53;;;10.66;68.35
80103;BME280;69410;47.648;19.030;2023-04-24T00:49:15;99723.00;;;10.67;68.19
80103;BME280;69410;47.648;19.030;2023-04-24T00:49:47;99726.72;;;10.74;67.10
80103;BME280;69410;47.648;19.030;2023-04-24T00:50:18;99723.78;;;10.77;66.79
80103;BME280;69410;47.648;19.030;2023-04-24T00:50:51;99724.44;;;10.79;66.82
80103;BME280;69410;47.648;19.030;2023-04-24T00:51:21;99722.66;;;10.80;66.89
80103;BME280;69410;47.648;19.030;2023-04-24T00:51:52;99726.94;;;10.81;66.64
80103;BME280;69410;47.648;19.030;2023-04-24T00:52:23;99720.00;;;10.80;67.78
80103;BME280;69410;47.648;19.030;2023-04-24T00:52:54;99724.38;;;10.71;65.58
80103;BME280;69410;47.648;19.030;2023-04-24T00:53:25;99722.72;;;10.70;66.63
80103;BME280;69410;47.648;19.030;2023-04-24T00:53:55;99724.38;;;10.71;65.92
80103;BME280;69410;47.648;19.030;2023-04-24T00:54:26;99722.94;;;10.77;65.71
80103;BME280;69410;47.648;19.030;2023-04-24T00:54:57;99725.72;;;10.75;66.46
80103;BME280;69410;47.648;19.030;2023-04-24T00:55:28;99724.63;;;10.78;66.13
80103;BME280;69410;47.648;19.030;2023-04-24T00:56:03;99719.19;;;10.79;66.53
80103;BME280;69410;47.648;19.030;2023-04-24T00:56:49;99724.44;;;10.79;65.81
80103;BME280;69410;47.648;19.030;2023-04-24T00:57:22;99724.00;;;10.84;66.17
80103;BME280;69410;47.648;19.030;2023-04-24T00:57:55;99723.56;;;10.89;66.50
80103;BME280;69410;47.648;19.030;2023-04-24T00:58:30;99731.59;;;10.87;67.91
80103;BME280;69410;47.648;19.030;2023-04-24T00:59:01;99721.91;;;10.88;67.74
80103;BME280;69410;47.648;19.030;2023-04-24T00:59:32;99723.88;;;10.86;68.39
80103;BME280;69410;47.648;19.030;2023-04-24T01:00:05;99727.09;;;10.79;68.61
80103;BME280;69410;47.648;19.030;2023-04-24T01:00:39;99733.19;;;10.80;68.96
80103;BME280;69410;47.648;19.030;2023-04-24T01:01:10;99727.38;;;10.76;69.35
80103;BME280;69410;47.648;19.030;2023-04-24T01:01:41;99723.09;;;10.75;70.55
80103;BME280;69410;47.648;19.030;2023-04-24T01:02:13;99726.16;;;10.71;68.62
80103;BME280;69410;47.648;19.030;2023-04-24T01:02:47;99721.59;;;10.73;69.45
80103;BME280;69410;47.648;19.030;2023-04-24T01:03:19;99727.69;;;10.73;69.02
80103;BME280;69410;47.648;19.030;2023-04-24T01:03:57;99721.72;;;10.71;70.48
80103;BME280;69410;47.648;19.030;2023-04-24T01:04:29;99720.09;;;10.70;70.53
80103;BME280;69410;47.648;19.030;2023-04-24T01:05:02;99718.25;;;10.71;71.18
80103;BME280;69410;47.648;19.030;2023-04-24T01:05:33;99726.16;;;10.71;70.96
80103;BME280;69410;47.648;19.030;2023-04-24T01:06:05;99721.91;;;10.70;71.03
80103;BME280;69410;47.648;19.030;2023-04-24T01:06:38;99722.03;;;10.68;70.13
80103;BME280;69410;47.648;19.030;2023-04-24T01:07:41;99717.50;;;10.61;70.97
80103;BME280;69410;47.648;19.030;2023-04-24T01:08:14;99715.19;;;10.58;71.46
80103;BME280;69410;47.648;19.030;2023-04-24T01:08:48;99719.31;;;10.60;70.93
80103;BME280;69410;47.648;19.030;2023-04-24T01:09:25;99725.09;;;10.64;69.91
80103;BME280;69410;47.648;19.030;2023-04-24T01:09:57;99724.28;;;10.63;70.96
80103;BME280;69410;47.648;19.030;2023-04-24T01:10:29;99727.06;;;10.62;70.76
80103;BME280;69410;47.648;19.030;2023-04-24T01:11:03;99719.47;;;10.59;70.57
80103;BME280;69410;47.648;19.030;2023-04-24T01:11:34;99723.47;;;10.63;70.72
80103;BME280;69410;47.648;19.030;2023-04-24T01:12:05;99715.00;;;10.59;69.95
80103;BME280;69410;47.648;19.030;2023-04-24T01:12:37;99716.97;;;10.57;70.36
80103;BME280;69410;47.648;19.030;2023-04-24T01:13:08;99724.75;;;10.59;71.15
80103;BME280;69410;47.648;19.030;2023-04-24T01:13:39;99714.88;;;10.61;70.29
80103;BME280;69410;47.648;19.030;2023-04-24T01:14:11;99719.47;;;10.59;70.50
80103;BME280;69410;47.648;19.030;2023-04-24T01:14:43;99719.09;;;10.54;70.83
80103;BME280;69410;47.648;19.030;2023-04-24T01:15:14;99715.22;;;10.48;71.11
80103;BME280;69410;47.648;19.030;2023-04-24T01:15:45;99718.81;;;10.47;70.86
80103;BME280;69410;47.648;19.030;2023-04-24T01:16:16;99721.19;;;10.50;71.58
80103;BME280;69410;47.648;19.030;2023-04-24T01:16:46;99716.59;;;10.52;71.15
80103;BME280;69410;47.648;19.030;2023-04-24T01:17:17;99719.22;;;10.52;71.37
80103;BME280;69410;47.648;19.030;2023-04-24T01:17:48;99717.56;;;10.51;71.59
80103;BME280;69410;47.648;19.030;2023-04-24T01:18:19;99720.06;;;10.53;71.52
80103;BME280;69410;47.648;19.030;2023-04-24T01:18:49;99720.75;;;10.55;71.36
80103;BME280;69410;47.648;19.030;2023-04-24T01:19:20;99718.13;;;10.55;71.47
80103;BME280;69410;47.648;19.030;2023-04-24T01:19:51;99721.72;;;10.54;71.99
80103;BME280;69410;47.648;19.030;2023-04-24T01:20:24;99719.09;;;10.54;72.16
80103;BME280;69410;47.648;19.030;2023-04-24T01:20:58;99723.22;;;10.56;72.13
80103;BME280;69410;47.648;19.030;2023-04-24T01:21:31;99720.88;;;10.53;72.18
80103;BME280;69410;47.648;19.030;2023-04-24T01:22:10;99721.72;;;10.54;71.28
80103;BME280;69410;47.648;19.030;2023-04-24T01:22:42;99726.16;;;10.53;72.82
80103;BME280;69410;47.648;19.030;2023-04-24T01:23:12;99724.66;;;10.51;71.61
80103;BME280;69410;47.648;19.030;2023-04-24T01:23:44;99718.69;;;10.49;72.77
80103;BME280;69410;47.648;19.030;2023-04-24T01:24:15;99716.19;;;10.47;72.76
80103;BME280;69410;47.648;19.030;2023-04-24T01:24:46;99719.66;;;10.48;72.75
80103;BME280;69410;47.648;19.030;2023-04-24T01:25:17;99718.69;;;10.49;73.38
80103;BME280;69410;47.648;19.030;2023-04-24T01:25:48;99721.31;;;10.49;72.96
80103;BME280;69410;47.648;19.030;2023-04-24T01:26:20;99719.53;;;10.49;72.86
80103;BME280;69410;47.648;19.030;2023-04-24T01:26:51;99723.00;;;10.50;71.85
80103;BME280;69410;47.648;19.030;2023-04-24T01:27:22;99729.22;;;10.49;73.23
80103;BME280;69410;47.648;19.030;2023-04-24T01:27:53;99720.25;;;10.42;73.55
80103;BME280;69410;47.648;19.030;2023-04-24T01:28:23;99723.03;;;10.40;72.83
80103;BME280;69410;47.648;19.030;2023-04-24T01:28:54;99723.03;;;10.40;72.83
80103;BME280;69410;47.648;19.030;2023-04-24T01:29:26;99716.41;;;10.36;72.86
80103;BME280;69410;47.648;19.030;2023-04-24T01:29:57;99717.41;;;10.35;73.12
80103;BME280;69410;47.648;19.030;2023-04-24T01:30:29;99720.69;;;10.37;72.52
80103;BME280;69410;47.648;19.030;2023-04-24T01:31:00;99719.03;;;10.36;72.89
80103;BME280;69410;47.648;19.030;2023-04-24T01:31:32;99715.56;;;10.35;73.21
80103;BME280;69410;47.648;19.030;2023-04-24T01:32:04;99717.22;;;10.36;73.73
80103;BME280;69410;47.648;19.030;2023-04-24T01:32:36;99716.78;;;10.41;72.98
80103;BME280;69410;47.648;19.030;2023-04-24T01:33:07;99718.59;;;10.41;72.96
80103;BME280;69410;47.648;19.030;2023-04-24T01:33:38;99717.94;;;10.39;73.84
80103;BME280;69410;47.648;19.030;2023-04-24T01:34:10;99724.16;;;10.38;73.91
80103;BME280;69410;47.648;19.030;2023-04-24T01:34:42;99720.41;;;10.40;73.66
80103;BME280;69410;47.648;19.030;2023-04-24T01:35:13;99717.09;;;10.38;74.12
80103;BME280;69410;47.648;19.030;2023-04-24T01:35:44;99718.72;;;10.39;73.83
80103;BME280;69410;47.648;19.030;2023-04-24T01:36:16;99720.56;;;10.39;73.48
80103;BME280;69410;47.648;19.030;2023-04-24T01:36:47;99711.97;;;10.36;73.07
80103;BME280;69410;47.648;19.030;2023-04-24T01:37:20;99721.53;;;10.38;72.71
80103;BME280;69410;47.648;19.030;2023-04-24T01:37:50;99712.50;;;10.40;72.72
80103;BME280;69410;47.648;19.030;2023-04-24T01:38:21;99714.03;;;10.43;73.97
80103;BME280;69410;47.648;19.030;2023-04-24T01:38:52;99709.72;;;10.42;74.06
80103;BME280;69410;47.648;19.030;2023-04-24T01:39:23;99710.56;;;10.42;73.40
80103;BME280;69410;47.648;19.030;2023-04-24T01:39:54;99713.88;;;10.44;72.34
80103;BME280;69410;47.648;19.030;2023-04-24T01:40:25;99706.81;;;10.45;72.16
80103;BME280;69410;47.648;19.030;2023-04-24T01:40:55;99710.25;;;10.45;72.37
80103;BME280;69410;47.648;19.030;2023-04-24T01:41:26;99708.59;;;10.44;73.29
80103;BME280;69410;47.648;19.030;2023-04-24T01:41:57;99710.94;;;10.47;72.89
80103;BME280;69410;47.648;19.030;2023-04-24T01:42:28;99708.28;;;10.47;73.80
80103;BME280;69410;47.648;19.030;2023-04-24T01:42:59;99713.56;;;10.47;74.06
80103;BME280;69410;47.648;19.030;2023-04-24T01:43:31;99712.59;;;10.48;72.87
80103;BME280;69410;47.648;19.030;2023-04-24T01:44:02;99709.97;;;10.48;73.62
80103;BME280;69410;47.648;19.030;2023-04-24T01:44:33;99707.50;;;10.47;72.62
80103;BME280;69410;47.648;19.030;2023-04-24T01:45:06;99710.13;;;10.47;72.68
80103;BME280;69410;47.648;19.030;2023-04-24T01:45:37;99709.13;;;10.48;73.53
80103;BME280;69410;47.648;19.030;2023-04-24T01:46:08;99710.13;;;10.47;73.24
80103;BME280;69410;47.648;19.030;2023-04-24T01:46:38;99705.84;;;10.46;72.99
80103;BME280;69410;47.648;19.030;2023-04-24T01:47:10;99705.41;;;10.50;72.48
80103;BME280;69410;47.648;19.030;2023-04-24T01:47:41;99708.16;;;10.49;73.09
80103;BME280;69410;47.648;19.030;2023-04-24T01:48:13;99703.03;;;10.47;72.60
80103;BME280;69410;47.648;19.030;2023-04-24T01:48:44;99703.88;;;10.48;72.27
80103;BME280;69410;47.648;19.030;2023-04-24T01:49:15;99709.66;;;10.51;71.83
80103;BME280;69410;47.648;19.030;2023-04-24T01:49:48;99704.41;;;10.51;72.59
80103;BME280;69410;47.648;19.030;2023-04-24T01:50:19;99702.59;;;10.52;72.57
80103;BME280;69410;47.648;19.030;2023-04-24T01:50:49;99699.53;;;10.56;71.58
80103;BME280;69410;47.648;19.030;2023-04-24T01:51:20;99704.47;;;10.59;70.98
80103;BME280;69410;47.648;19.030;2023-04-24T01:51:51;99700.06;;;10.60;70.84
80103;BME280;69410;47.648;19.030;2023-04-24T01:52:23;99701.41;;;10.64;71.51
80103;BME280;69410;47.648;19.030;2023-04-24T01:52:54;99698.13;;;10.62;72.01
80103;BME280;69410;47.648;19.030;2023-04-24T01:53:24;99692.97;;;10.60;71.66
80103;BME280;69410;47.648;19.030;2023-04-24T01:53:55;99694.66;;;10.61;71.43
80103;BME280;69410;47.648;19.030;2023-04-24T01:54:26;99697.16;;;10.63;70.49
80103;BME280;69410;47.648;19.030;2023-04-24T01:54:59;99693.50;;;10.64;70.45
80103;BME280;69410;47.648;19.030;2023-04-24T01:55:31;99693.25;;;10.67;70.88
80103;BME280;69410;47.648;19.030;2023-04-24T01:56:02;99693.06;;;10.68;70.41
80103;BME280;69410;47.648;19.030;2023-04-24T01:56:34;99686.44;;;10.64;71.05
80103;BME280;69410;47.648;19.030;2023-04-24T01:57:05;99691.56;;;10.66;71.80
80103;BME280;69410;47.648;19.030;2023-04-24T01:57:36;99690.75;;;10.65;71.34
80103;BME280;69410;47.648;19.030;2023-04-24T01:58:07;99692.53;;;10.65;71.74
80103;BME280;69410;47.648;19.030;2023-04-24T01:58:38;99692.41;;;10.66;71.35
80103;BME280;69410;47.648;19.030;2023-04-24T01:59:12;99695.69;;;10.68;70.72
80103;BME280;69410;47.648;19.030;2023-04-24T01:59:43;99698.19;;;10.70;69.43
80103;BME280;69410;47.648;19.030;2023-04-24T02:00:14;99690.97;;;10.72;70.23
80103;BME280;69410;47.648;19.030;2023-04-24T02:00:44;99690.66;;;10.75;69.58
80103;BME280;69410;47.648;19.030;2023-04-24T02:01:17;99693.47;;;10.73;68.64
80103;BME280;69410;47.648;19.030;2023-04-24T02:01:48;99690.66;;;10.75;69.01
80103;BME280;69410;47.648;19.030;2023-04-24T02:02:19;99692.84;;;10.79;68.36
80103;BME280;69410;47.648;19.030;2023-04-24T02:02:50;99692.72;;;10.81;67.93
80103;BME280;69410;47.648;19.030;2023-04-24T02:03:20;99689.94;;;10.82;68.57
80103;BME280;69410;47.648;19.030;2023-04-24T02:03:52;99695.88;;;10.84;68.95
80103;BME280;69410;47.648;19.030;2023-04-24T02:04:22;99681.72;;;10.86;68.90
80103;BME280;69410;47.648;19.030;2023-04-24T02:04:53;99687.97;;;10.84;69.24
80103;BME280;69410;47.648;19.030;2023-04-24T02:05:24;99691.44;;;10.85;69.63
80103;BME280;69410;47.648;19.030;2023-04-24T02:05:56;99693.75;;;10.88;69.15
80103;BME280;69410;47.648;19.030;2023-04-24T02:06:30;99686.69;;;10.89;70.97
80103;BME280;69410;47.648;19.030;2023-04-24T02:07:01;99678.78;;;10.89;71.05
80103;BME280;69410;47.648;19.030;2023-04-24T02:07:33;99675.31;;;10.88;72.17
80103;BME280;69410;47.648;19.030;2023-04-24T02:08:04;99674.47;;;10.88;73.41
80103;BME280;69410;47.648;19.030;2023-04-24T02:08:35;99672.16;;;10.84;71.56
80103;BME280;69410;47.648;19.030;2023-04-24T02:09:06;99673.66;;;10.69;73.84
80103;BME280;69410;47.648;19.030;2023-04-24T02:09:37;99674.25;;;10.63;75.46
80103;BME280;69410;47.648;19.030;2023-04-24T02:10:09;99667.34;;;10.62;75.64
80103;BME280;69410;47.648;19.030;2023-04-24T02:10:40;99666.66;;;10.60;74.99
80103;BME280;69410;47.648;19.030;2023-04-24T02:11:11;99659.88;;;10.58;76.24
80103;BME280;69410;47.648;19.030;2023-04-24T02:11:41;99667.63;;;10.59;75.77
80103;BME280;69410;47.648;19.030;2023-04-24T02:12:12;99661.81;;;10.56;76.53
80103;BME280;69410;47.648;19.030;2023-04-24T02:12:43;99659.81;;;10.50;76.20
80103;BME280;69410;47.648;19.030;2023-04-24T02:13:14;99660.09;;;10.47;76.42
80103;BME280;69410;47.648;19.030;2023-04-24T02:13:44;99658.88;;;10.41;77.18
80103;BME280;69410;47.648;19.030;2023-04-24T02:14:15;99657.75;;;10.44;77.18
80103;BME280;69410;47.648;19.030;2023-04-24T02:14:46;99652.50;;;10.44;76.92
80103;BME280;69410;47.648;19.030;2023-04-24T02:15:17;99660.38;;;10.44;76.67
80103;BME280;69410;47.648;19.030;2023-04-24T02:15:47;99662.88;;;10.45;75.35
80103;BME280;69410;47.648;19.030;2023-04-24T02:16:18;99663.72;;;10.46;75.47
80103;BME280;69410;47.648;19.030;2023-04-24T02:16:49;99659.56;;;10.43;76.13
80103;BME280;69410;47.648;19.030;2023-04-24T02:17:20;99664.16;;;10.41;75.59
80103;BME280;69410;47.648;19.030;2023-04-24T02:17:51;99664.97;;;10.42;75.66
80103;BME280;69410;47.648;19.030;2023-04-24T02:18:21;99667.31;;;10.45;75.58
80103;BME280;69410;47.648;19.030;2023-04-24T02:18:52;99666.19;;;10.47;76.53
80103;BME280;69410;47.648;19.030;2023-04-24T02:19:23;99665.06;;;10.50;75.66
80103;BME280;69410;47.648;19.030;2023-04-24T02:19:53;99660.34;;;10.53;75.06
80103;BME280;69410;47.648;19.030;2023-04-24T02:20:24;99662.28;;;10.51;75.06
80103;BME280;69410;47.648;19.030;2023-04-24T02:20:55;99658.53;;;10.54;75.49
80103;BME280;69410;47.648;19.030;2023-04-24T02:21:26;99660.34;;;10.53;76.63
80103;BME280;69410;47.648;19.030;2023-04-24T02:21:57;99652.44;;;10.53;76.83
80103;BME280;69410;47.648;19.030;2023-04-24T02:22:27;99655.06;;;10.53;75.56
80103;BME280;69410;47.648;19.030;2023-04-24T02:23:00;99665.47;;;10.55;75.91
80103;BME280;69410;47.648;19.030;2023-04-24T02:23:30;99661.31;;;10.52;76.16
80103;BME280;69410;47.648;19.030;2023-04-24T02:24:01;99659.09;;;10.48;75.90
80103;BME280;69410;47.648;19.030;2023-04-24T02:24:32;99662.03;;;10.45;76.58
80103;BME280;69410;47.648;19.030;2023-04-24T02:25:03;99662.44;;;10.50;75.90
80103;BME280;69410;47.648;19.030;2023-04-24T02:25:34;99665.38;;;10.47;77.14
80103;BME280;69410;47.648;19.030;2023-04-24T02:26:05;99663.00;;;10.44;77.42
80103;BME280;69410;47.648;19.030;2023-04-24T02:26:36;99656.91;;;10.43;76.88
80103;BME280;69410;47.648;19.030;2023-04-24T02:27:07;99660.09;;;10.47;77.05
80103;BME280;69410;47.648;19.030;2023-04-24T02:27:37;99659.63;;;10.51;75.94
80103;BME280;69410;47.648;19.030;2023-04-24T02:28:08;99662.00;;;10.54;76.82
80103;BME280;69410;47.648;19.030;2023-04-24T02:28:39;99654.22;;;10.53;78.13
80103;BME280;69410;47.648;19.030;2023-04-24T02:29:10;99661.00;;;10.55;79.40
80103;BME280;69410;47.648;19.030;2023-04-24T02:29:40;99656.56;;;10.56;80.27
80103;BME280;69410;47.648;19.030;2023-04-24T02:30:12;99654.09;;;10.54;79.27
80103;BME280;69410;47.648;19.030;2023-04-24T02:30:42;99660.03;;;10.56;77.83
80103;BME280;69410;47.648;19.030;2023-04-24T02:31:13;99656.88;;;10.53;79.39
80103;BME280;69410;47.648;19.030;2023-04-24T02:31:44;99651.75;;;10.51;78.86
80103;BME280;69410;47.648;19.030;2023-04-24T02:32:15;99650.78;;;10.52;78.20
80103;BME280;69410;47.648;19.030;2023-04-24T02:32:45;99653.94;;;10.56;79.80
80103;BME280;69410;47.648;19.030;2023-04-24T02:33:16;99654.44;;;10.59;79.39
80103;BME280;69410;47.648;19.030;2023-04-24T02:33:47;99651.69;;;10.61;77.76
80103;BME280;69410;47.648;19.030;2023-04-24T02:34:18;99655.00;;;10.63;78.82
80103;BME280;69410;47.648;19.030;2023-04-24T02:34:48;99651.81;;;10.59;77.77
80103;BME280;69410;47.648;19.030;2023-04-24T02:35:19;99643.91;;;10.59;77.42
80103;BME280;69410;47.648;19.030;2023-04-24T02:35:50;99650.72;;;10.62;77.19
80103;BME280;69410;47.648;19.030;2023-04-24T02:36:21;99650.53;;;10.63;77.69
80103;BME280;69410;47.648;19.030;2023-04-24T02:36:51;99646.81;;;10.66;77.03
80103;BME280;69410;47.648;19.030;2023-04-24T02:37:22;99645.84;;;10.67;76.68
80103;BME280;69410;47.648;19.030;2023-04-24T02:37:53;99642.06;;;10.69;76.57
80103;BME280;69410;47.648;19.030;2023-04-24T02:38:25;99647.31;;;10.69;76.83
80103;BME280;69410;47.648;19.030;2023-04-24T02:38:56;99638.72;;;10.67;75.52
80103;BME280;69410;47.648;19.030;2023-04-24T02:39:26;99639.72;;;10.66;76.90
80103;BME280;69410;47.648;19.030;2023-04-24T02:39:57;99642.38;;;10.66;76.49
80103;BME280;69410;47.648;19.030;2023-04-24T02:40:28;99643.47;;;10.64;76.15
80103;BME280;69410;47.648;19.030;2023-04-24T02:40:59;99638.66;;;10.59;76.57
80103;BME280;69410;47.648;19.030;2023-04-24T02:41:30;99639.50;;;10.60;76.56
80103;BME280;69410;47.648;19.030;2023-04-24T02:42:00;99643.25;;;10.57;76.46
80103;BME280;69410;47.648;19.030;2023-04-24T02:42:31;99632.72;;;10.57;77.41
80103;BME280;69410;47.648;19.030;2023-04-24T02:43:02;99641.91;;;10.53;78.24
80103;BME280;69410;47.648;19.030;2023-04-24T02:43:33;99636.78;;;10.52;79.79
80103;BME280;69410;47.648;19.030;2023-04-24T02:44:03;99641.22;;;10.51;80.43